Terminal Aerodrome Forecast
Issued by NWS Grand Forks, ND

Home | Current Version | Previous Version | Graphics & Text | Print | Product List | Glossary On
Versions: 1 2 3 4 5 6 7 8 9 10 11 12 13 14 15 16 17 18 19 20
831
FTUS43 KFGF 102340
TAFGFK
TAF
KGFK 102340Z 1100/1124 18006KT P6SM OVC060
     FM110300 19008KT 4SM -SN BKN030
     FM110500 22008KT P6SM BKN030
     FM110600 23008KT P6SM BKN040
     FM111100 33016G24KT 5SM -SN OVC015
     FM111200 34018G27KT 4SM -SN BLSN OVC008
     FM111400 35019G29KT P6SM OVC008
     FM112100 35018G27KT P6SM SCT040=

USA.gov is the U.S. government's official web portal to all federal, state and local government web resources and services.